createdAt,value
2022-08-25T00:00:00.745Z,1012.76
2022-08-25T00:01:00.728Z,1012.78
2022-08-25T00:02:00.711Z,1012.79
2022-08-25T00:03:00.725Z,1012.77
2022-08-25T00:04:00.685Z,1012.79
2022-08-25T00:05:00.740Z,1012.78
2022-08-25T00:06:00.645Z,1012.77
2022-08-25T00:07:03.149Z,1012.76
2022-08-25T00:08:00.760Z,1012.80
2022-08-25T00:09:00.598Z,1012.79
2022-08-25T00:10:00.580Z,1012.78
2022-08-25T00:11:03.408Z,1012.79
2022-08-25T00:12:00.545Z,1012.76
2022-08-25T00:13:00.531Z,1012.76
2022-08-25T00:14:00.515Z,1012.78
2022-08-25T00:15:00.498Z,1012.77
2022-08-25T00:16:00.541Z,1012.77
2022-08-25T00:17:00.464Z,1012.74
2022-08-25T00:18:00.448Z,1012.78
2022-08-25T00:19:00.431Z,1012.77
2022-08-25T00:20:00.413Z,1012.76
2022-08-25T00:21:00.399Z,1012.79
2022-08-25T00:22:00.378Z,1012.78
2022-08-25T00:23:00.363Z,1012.76
2022-08-25T00:24:00.345Z,1012.78
2022-08-25T00:25:00.331Z,1012.80
2022-08-25T00:26:00.315Z,1012.80
2022-08-25T00:27:00.297Z,1012.80
2022-08-25T00:28:02.978Z,1012.80
2022-08-25T00:29:02.147Z,1012.79
2022-08-25T00:30:00.250Z,1012.81
2022-08-25T00:31:00.288Z,1012.80
2022-08-25T00:32:00.213Z,1012.79
2022-08-25T00:33:00.198Z,1012.79
2022-08-25T00:34:00.179Z,1012.78
2022-08-25T00:35:00.167Z,1012.76
2022-08-25T00:36:00.147Z,1012.77
2022-08-25T00:37:00.130Z,1012.80
2022-08-25T00:38:00.203Z,1012.82
2022-08-25T00:39:00.098Z,1012.82
2022-08-25T00:40:00.167Z,1012.82
2022-08-25T00:41:00.112Z,1012.82
2022-08-25T00:42:00.044Z,1012.84
2022-08-25T00:43:00.030Z,1012.87
2022-08-25T00:44:00.013Z,1012.85
2022-08-25T00:45:00.548Z,1012.86
2022-08-25T00:46:00.065Z,1012.83
2022-08-25T00:46:59.963Z,1012.89
2022-08-25T00:48:00.141Z,1012.87
2022-08-25T00:48:59.928Z,1012.90
2022-08-25T00:49:59.911Z,1012.85
2022-08-25T00:50:59.896Z,1012.84
2022-08-25T00:51:59.877Z,1012.87
2022-08-25T00:52:59.861Z,1012.86
2022-08-25T00:53:59.846Z,1012.84
2022-08-25T00:55:04.288Z,1012.86
2022-08-25T00:55:59.814Z,1012.89
2022-08-25T00:56:59.792Z,1012.83
2022-08-25T00:57:59.871Z,1012.88
2022-08-25T00:58:59.763Z,1012.87
2022-08-25T00:59:59.742Z,1012.88
2022-08-25T01:00:59.723Z,1012.89
2022-08-25T01:01:59.769Z,1012.90
2022-08-25T01:02:59.758Z,1012.87
2022-08-25T01:03:59.678Z,1012.84
2022-08-25T01:04:59.662Z,1012.85
2022-08-25T01:05:59.640Z,1012.83
2022-08-25T01:06:59.626Z,1012.81
2022-08-25T01:07:59.660Z,1012.81
2022-08-25T01:08:59.590Z,1012.82
2022-08-25T01:09:59.580Z,1012.80
2022-08-25T01:10:59.556Z,1012.81
2022-08-25T01:11:59.537Z,1012.78
2022-08-25T01:12:59.523Z,1012.78
2022-08-25T01:13:59.505Z,1012.79
2022-08-25T01:14:59.488Z,1012.80
2022-08-25T01:15:59.519Z,1012.80
2022-08-25T01:16:59.464Z,1012.79
2022-08-25T01:17:59.791Z,1012.77
2022-08-25T01:18:59.422Z,1012.80
2022-08-25T01:19:59.401Z,1012.77
2022-08-25T01:20:59.387Z,1012.77
2022-08-25T01:21:59.371Z,1012.80
2022-08-25T01:22:59.352Z,1012.74
2022-08-25T01:23:59.337Z,1012.75
2022-08-25T01:24:59.326Z,1012.77
2022-08-25T01:25:59.299Z,1012.75
2022-08-25T01:26:59.285Z,1012.74
2022-08-25T01:27:59.366Z,1012.76
2022-08-25T01:28:59.252Z,1012.73
2022-08-25T01:29:59.234Z,1012.72
2022-08-25T01:30:59.302Z,1012.74
2022-08-25T01:31:59.196Z,1012.73
2022-08-25T01:32:59.183Z,1012.70
2022-08-25T01:33:59.164Z,1012.74
2022-08-25T01:34:59.147Z,1012.74
2022-08-25T01:35:59.132Z,1012.77
2022-08-25T01:36:59.111Z,1012.75
2022-08-25T01:37:59.113Z,1012.76
2022-08-25T01:38:59.077Z,1012.75
2022-08-25T01:39:59.134Z,1012.76
2022-08-25T01:40:59.044Z,1012.79
2022-08-25T01:41:59.031Z,1012.77
2022-08-25T01:42:59.009Z,1012.76
2022-08-25T01:43:58.997Z,1012.80
2022-08-25T01:44:58.975Z,1012.77
2022-08-25T01:45:59.027Z,1012.79
2022-08-25T01:46:58.942Z,1012.83
2022-08-25T01:47:58.926Z,1012.76
2022-08-25T01:48:58.905Z,1012.78
2022-08-25T01:49:58.890Z,1012.79
2022-08-25T01:50:58.876Z,1012.77
2022-08-25T01:51:58.856Z,1012.76
2022-08-25T01:52:58.840Z,1012.77
2022-08-25T01:53:58.824Z,1012.72
2022-08-25T01:54:58.804Z,1012.74
2022-08-25T01:55:58.788Z,1012.72
2022-08-25T01:56:58.771Z,1012.70
2022-08-25T01:57:58.761Z,1012.68
2022-08-25T01:58:58.735Z,1012.64
2022-08-25T01:59:58.720Z,1012.68
2022-08-25T02:00:58.778Z,1012.69
2022-08-25T02:02:00.105Z,1012.70
2022-08-25T02:02:58.748Z,1012.69
2022-08-25T02:03:58.650Z,1012.69
2022-08-25T02:04:58.633Z,1012.71
2022-08-25T02:05:58.616Z,1012.71
2022-08-25T02:06:58.597Z,1012.73
2022-08-25T02:07:58.581Z,1012.72
2022-08-25T02:08:58.564Z,1012.71
2022-08-25T02:09:58.789Z,1012.72
2022-08-25T02:10:58.527Z,1012.70
2022-08-25T02:11:58.511Z,1012.66
2022-08-25T02:12:58.495Z,1012.66
2022-08-25T02:13:58.476Z,1012.65
2022-08-25T02:14:58.461Z,1012.65
2022-08-25T02:15:58.441Z,1012.65
2022-08-25T02:16:58.548Z,1012.63
2022-08-25T02:17:58.412Z,1012.62
2022-08-25T02:18:58.389Z,1012.63
2022-08-25T02:19:58.374Z,1012.63
2022-08-25T02:20:58.356Z,1012.59
2022-08-25T02:21:58.338Z,1012.60
2022-08-25T02:22:58.320Z,1012.60
2022-08-25T02:23:58.304Z,1012.58
2022-08-25T02:24:58.286Z,1012.59
2022-08-25T02:25:58.270Z,1012.53
2022-08-25T02:26:58.251Z,1012.61
2022-08-25T02:27:58.235Z,1012.61
2022-08-25T02:28:58.219Z,1012.61
2022-08-25T02:29:58.203Z,1012.58
2022-08-25T02:31:01.649Z,1012.60
2022-08-25T02:31:58.168Z,1012.61
2022-08-25T02:32:58.149Z,1012.63
2022-08-25T02:33:58.131Z,1012.64
2022-08-25T02:34:58.116Z,1012.65
2022-08-25T02:35:58.099Z,1012.65
2022-08-25T02:36:58.079Z,1012.69
2022-08-25T02:37:58.062Z,1012.66
2022-08-25T02:38:58.045Z,1012.67
2022-08-25T02:39:58.107Z,1012.62
2022-08-25T02:40:58.014Z,1012.64
2022-08-25T02:41:57.993Z,1012.66
2022-08-25T02:42:57.974Z,1012.66
2022-08-25T02:43:57.958Z,1012.66
2022-08-25T02:44:57.938Z,1012.66
2022-08-25T02:45:58.008Z,1012.66
2022-08-25T02:46:57.909Z,1012.65
2022-08-25T02:47:57.886Z,1012.67
2022-08-25T02:48:57.868Z,1012.64
2022-08-25T02:49:57.855Z,1012.62
2022-08-25T02:50:57.836Z,1012.58
2022-08-25T02:51:57.818Z,1012.61
2022-08-25T02:52:57.802Z,1012.62
2022-08-25T02:53:57.785Z,1012.59
2022-08-25T02:54:57.765Z,1012.58
2022-08-25T02:55:57.749Z,1012.61
2022-08-25T02:56:57.734Z,1012.63
2022-08-25T02:57:57.715Z,1012.65
2022-08-25T02:58:57.695Z,1012.65
2022-08-25T02:59:57.678Z,1012.68
2022-08-25T03:00:57.680Z,1012.69
2022-08-25T03:01:57.646Z,1012.71
2022-08-25T03:02:57.630Z,1012.72
2022-08-25T03:03:57.680Z,1012.71
2022-08-25T03:04:57.652Z,1012.70
2022-08-25T03:05:57.575Z,1012.69
2022-08-25T03:06:57.556Z,1012.72
2022-08-25T03:07:57.538Z,1012.78
2022-08-25T03:08:57.525Z,1012.77
2022-08-25T03:09:57.504Z,1012.80
2022-08-25T03:10:57.488Z,1012.75
2022-08-25T03:11:57.469Z,1012.76
2022-08-25T03:12:57.453Z,1012.75
2022-08-25T03:13:57.439Z,1012.77
2022-08-25T03:14:57.415Z,1012.75
2022-08-25T03:15:57.397Z,1012.75
2022-08-25T03:16:57.445Z,1012.74
2022-08-25T03:17:57.362Z,1012.76
2022-08-25T03:18:57.543Z,1012.72
2022-08-25T03:19:57.326Z,1012.71
2022-08-25T03:20:57.309Z,1012.69
2022-08-25T03:21:57.296Z,1012.67
2022-08-25T03:22:57.275Z,1012.66
2022-08-25T03:23:57.255Z,1012.64
2022-08-25T03:24:57.244Z,1012.65
2022-08-25T03:25:57.222Z,1012.64
2022-08-25T03:26:57.208Z,1012.65
2022-08-25T03:27:57.185Z,1012.61
2022-08-25T03:28:57.170Z,1012.63
2022-08-25T03:29:57.150Z,1012.61
2022-08-25T03:30:57.131Z,1012.59
2022-08-25T03:31:57.177Z,1012.57
2022-08-25T03:32:57.099Z,1012.60
2022-08-25T03:33:57.081Z,1012.55
2022-08-25T03:34:57.061Z,1012.56
2022-08-25T03:35:57.044Z,1012.56
2022-08-25T03:36:57.024Z,1012.51
2022-08-25T03:37:57.008Z,1012.54
2022-08-25T03:38:56.991Z,1012.52
2022-08-25T03:39:57.038Z,1012.53
2022-08-25T03:40:56.958Z,1012.53
2022-08-25T03:41:56.939Z,1012.54
2022-08-25T03:42:56.947Z,1012.56
2022-08-25T03:43:56.909Z,1012.50
2022-08-25T03:44:56.886Z,1012.51
2022-08-25T03:45:56.913Z,1012.50
2022-08-25T03:46:56.845Z,1012.45
2022-08-25T03:47:56.830Z,1012.42
2022-08-25T03:48:56.811Z,1012.42
2022-08-25T03:49:56.798Z,1012.40
2022-08-25T03:50:56.774Z,1012.33
2022-08-25T03:51:56.758Z,1012.33
2022-08-25T03:52:56.739Z,1012.32
2022-08-25T03:53:56.722Z,1012.33
2022-08-25T03:54:56.706Z,1012.30
2022-08-25T03:55:56.691Z,1012.27
2022-08-25T03:56:56.669Z,1012.28
2022-08-25T03:57:56.651Z,1012.29
2022-08-25T03:58:56.630Z,1012.29
2022-08-25T03:59:56.615Z,1012.26
2022-08-25T04:00:56.676Z,1012.29
2022-08-25T04:01:56.655Z,1012.25
2022-08-25T04:02:56.561Z,1012.26
2022-08-25T04:03:56.554Z,1012.28
2022-08-25T04:04:56.527Z,1012.26
2022-08-25T04:05:56.510Z,1012.30
2022-08-25T04:06:56.490Z,1012.28
2022-08-25T04:07:56.474Z,1012.30
2022-08-25T04:08:56.454Z,1012.32
2022-08-25T04:09:56.438Z,1012.33
2022-08-25T04:10:56.424Z,1012.31
2022-08-25T04:11:56.403Z,1012.28
2022-08-25T04:12:56.389Z,1012.26
2022-08-25T04:13:56.367Z,1012.27
2022-08-25T04:14:56.348Z,1012.26
2022-08-25T04:15:56.330Z,1012.24
2022-08-25T04:16:56.435Z,1012.24
2022-08-25T04:17:56.293Z,1012.25
2022-08-25T04:18:56.276Z,1012.25
2022-08-25T04:19:56.259Z,1012.26
2022-08-25T04:20:56.244Z,1012.28
2022-08-25T04:21:56.745Z,1012.31
2022-08-25T04:22:56.209Z,1012.31
2022-08-25T04:23:56.198Z,1012.33
2022-08-25T04:24:56.171Z,1012.32
2022-08-25T04:25:56.155Z,1012.32
2022-08-25T04:26:56.134Z,1012.30
2022-08-25T04:27:56.114Z,1012.28
2022-08-25T04:28:56.097Z,1012.27
2022-08-25T04:29:56.083Z,1012.28
2022-08-25T04:30:56.069Z,1012.23
2022-08-25T04:31:56.116Z,1012.25
2022-08-25T04:32:56.025Z,1012.23
2022-08-25T04:33:56.008Z,1012.21
2022-08-25T04:34:55.992Z,1012.20
2022-08-25T04:35:55.972Z,1012.23
2022-08-25T04:36:55.953Z,1012.21
2022-08-25T04:37:55.940Z,1012.19
2022-08-25T04:38:55.921Z,1012.18
2022-08-25T04:39:55.977Z,1012.20
2022-08-25T04:40:55.889Z,1012.24
2022-08-25T04:41:55.864Z,1012.20
2022-08-25T04:42:55.845Z,1012.17
2022-08-25T04:43:55.832Z,1012.18
2022-08-25T04:44:55.817Z,1012.16
2022-08-25T04:45:55.830Z,1012.16
2022-08-25T04:46:55.778Z,1012.14
2022-08-25T04:47:55.758Z,1012.17
2022-08-25T04:48:55.738Z,1012.16
2022-08-25T04:49:55.721Z,1012.14
2022-08-25T04:50:55.703Z,1012.14
2022-08-25T04:51:55.686Z,1012.14
2022-08-25T04:52:55.669Z,1012.16
2022-08-25T04:53:55.655Z,1012.12
2022-08-25T04:54:55.632Z,1012.13
2022-08-25T04:55:55.614Z,1012.13
2022-08-25T04:56:58.021Z,1012.11
2022-08-25T04:57:55.578Z,1012.09
2022-08-25T04:58:55.557Z,1012.11
2022-08-25T04:59:55.546Z,1012.07
2022-08-25T05:00:55.539Z,1012.10
2022-08-25T05:01:55.505Z,1012.05
2022-08-25T05:02:55.486Z,1012.03
2022-08-25T05:03:55.555Z,1012.02
2022-08-25T05:04:55.451Z,1012.00
2022-08-25T05:05:55.432Z,1012.08
2022-08-25T05:06:55.416Z,1012.01
2022-08-25T05:07:55.398Z,1012.03
2022-08-25T05:08:55.381Z,1012.02
2022-08-25T05:09:55.363Z,1012.02
2022-08-25T05:10:55.344Z,1012.04
2022-08-25T05:11:55.334Z,1012.07
2022-08-25T05:12:55.309Z,1012.08
2022-08-25T05:13:55.295Z,1012.06
2022-08-25T05:14:55.274Z,1012.09
2022-08-25T05:15:55.254Z,1012.07
2022-08-25T05:16:55.237Z,1012.09
2022-08-25T05:17:56.146Z,1012.05
2022-08-25T05:18:55.201Z,1012.06
2022-08-25T05:19:55.182Z,1012.07
2022-08-25T05:20:55.162Z,1012.08
2022-08-25T05:21:55.149Z,1012.11
2022-08-25T05:22:55.127Z,1012.13
2022-08-25T05:23:55.109Z,1012.15
2022-08-25T05:24:55.091Z,1012.12
2022-08-25T05:25:55.074Z,1012.15
2022-08-25T05:26:55.057Z,1012.15
2022-08-25T05:27:55.040Z,1012.17
2022-08-25T05:28:55.018Z,1012.23
2022-08-25T05:29:55.005Z,1012.23
2022-08-25T05:30:54.987Z,1012.18
2022-08-25T05:31:55.010Z,1012.20
2022-08-25T05:32:54.946Z,1012.19
2022-08-25T05:33:54.930Z,1012.18
2022-08-25T05:34:54.913Z,1012.23
2022-08-25T05:35:54.895Z,1012.20
2022-08-25T05:36:54.881Z,1012.18
2022-08-25T05:37:54.859Z,1012.17
2022-08-25T05:38:54.839Z,1012.15
2022-08-25T05:39:54.841Z,1012.19
2022-08-25T05:40:54.806Z,1012.17
2022-08-25T05:41:54.789Z,1012.18
2022-08-25T05:42:54.771Z,1012.17
2022-08-25T05:43:54.753Z,1012.17
2022-08-25T05:44:54.733Z,1012.17
2022-08-25T05:45:54.778Z,1012.17
2022-08-25T05:46:54.699Z,1012.16
2022-08-25T05:47:54.678Z,1012.18
2022-08-25T05:48:54.664Z,1012.13
2022-08-25T05:49:54.645Z,1012.15
2022-08-25T05:50:54.638Z,1012.15
2022-08-25T05:51:54.611Z,1012.11
2022-08-25T05:52:54.591Z,1012.11
2022-08-25T05:53:54.571Z,1012.11
2022-08-25T05:54:54.558Z,1012.05
2022-08-25T05:55:54.536Z,1012.07
2022-08-25T05:56:54.523Z,1012.03
2022-08-25T05:57:54.500Z,1012.07
2022-08-25T05:58:54.488Z,1012.03
2022-08-25T05:59:54.470Z,1012.01
2022-08-25T06:00:54.493Z,1012.02
2022-08-25T06:01:54.436Z,1012.03
2022-08-25T06:02:54.415Z,1012.02
2022-08-25T06:03:54.603Z,1012.01
2022-08-25T06:04:54.381Z,1012.00
2022-08-25T06:05:54.363Z,1012.00
2022-08-25T06:06:54.342Z,1012.02
2022-08-25T06:07:54.325Z,1012.01
2022-08-25T06:08:54.307Z,1012.02
2022-08-25T06:09:54.288Z,1012.01
2022-08-25T06:10:54.276Z,1012.06
2022-08-25T06:11:55.352Z,1012.09
2022-08-25T06:12:54.237Z,1012.06
2022-08-25T06:13:54.219Z,1012.07
2022-08-25T06:14:54.201Z,1012.09
2022-08-25T06:15:54.225Z,1012.05
2022-08-25T06:16:54.168Z,1012.02
2022-08-25T06:17:56.736Z,1012.06
2022-08-25T06:18:54.132Z,1011.99
2022-08-25T06:19:54.112Z,1011.99
2022-08-25T06:20:54.095Z,1011.97
2022-08-25T06:21:54.090Z,1011.94
2022-08-25T06:22:54.060Z,1011.94
2022-08-25T06:23:54.043Z,1011.97
2022-08-25T06:24:54.028Z,1011.94
2022-08-25T06:25:54.007Z,1011.98
2022-08-25T06:26:53.990Z,1011.99
2022-08-25T06:27:53.970Z,1011.99
2022-08-25T06:28:53.955Z,1011.95
2022-08-25T06:29:56.035Z,1011.99
2022-08-25T06:30:53.920Z,1011.96
2022-08-25T06:31:53.980Z,1011.98
2022-08-25T06:32:53.892Z,1011.94
2022-08-25T06:33:53.865Z,1011.98
2022-08-25T06:34:53.850Z,1011.96
2022-08-25T06:35:53.831Z,1011.95
2022-08-25T06:36:53.812Z,1011.96
2022-08-25T06:37:53.795Z,1011.92
2022-08-25T06:38:53.778Z,1011.91
2022-08-25T06:39:53.834Z,1011.92
2022-08-25T06:40:53.746Z,1011.92
2022-08-25T06:41:53.724Z,1011.95
2022-08-25T06:42:53.707Z,1011.97
2022-08-25T06:43:57.513Z,1011.97
2022-08-25T06:44:53.673Z,1012.01
2022-08-25T06:45:53.654Z,1011.99
2022-08-25T06:46:53.663Z,1012.01
2022-08-25T06:47:53.623Z,1012.04
2022-08-25T06:48:53.607Z,1012.02
2022-08-25T06:49:53.589Z,1012.06
2022-08-25T06:50:53.573Z,1012.07
2022-08-25T06:51:53.552Z,1012.09
2022-08-25T06:52:53.533Z,1012.09
2022-08-25T06:53:53.521Z,1012.11
2022-08-25T06:54:53.500Z,1012.13
2022-08-25T06:55:53.480Z,1012.09
2022-08-25T06:56:53.463Z,1012.09
2022-08-25T06:57:53.448Z,1012.10
2022-08-25T06:58:53.446Z,1012.09
2022-08-25T06:59:53.655Z,1012.11
2022-08-25T07:00:53.441Z,1012.07
2022-08-25T07:01:53.482Z,1012.06
2022-08-25T07:02:53.519Z,1012.10
2022-08-25T07:03:53.341Z,1012.06
2022-08-25T07:04:53.326Z,1012.11
2022-08-25T07:05:53.307Z,1012.10
2022-08-25T07:06:53.292Z,1012.07
2022-08-25T07:07:53.272Z,1012.10
2022-08-25T07:08:53.258Z,1012.09
2022-08-25T07:09:53.241Z,1012.15
2022-08-25T07:10:53.224Z,1012.14
2022-08-25T07:11:53.203Z,1012.14
2022-08-25T07:12:53.187Z,1012.15
2022-08-25T07:13:53.177Z,1012.11
2022-08-25T07:15:10.050Z,1012.12
2022-08-25T07:15:53.269Z,1012.09
2022-08-25T07:16:53.128Z,1012.12
2022-08-25T07:17:53.100Z,1012.15
2022-08-25T07:18:53.084Z,1012.12
2022-08-25T07:19:57.428Z,1012.10
2022-08-25T07:20:53.051Z,1012.14
2022-08-25T07:21:53.043Z,1012.15
2022-08-25T07:22:53.021Z,1012.13
2022-08-25T07:23:53.001Z,1012.15
2022-08-25T07:24:52.983Z,1012.14
2022-08-25T07:25:52.965Z,1012.16
2022-08-25T07:26:52.953Z,1012.19
2022-08-25T07:27:55.890Z,1012.21
2022-08-25T07:28:52.925Z,1012.21
2022-08-25T07:29:52.898Z,1012.22
2022-08-25T07:30:52.882Z,1012.24
2022-08-25T07:31:52.925Z,1012.24
2022-08-25T07:32:55.022Z,1012.24
2022-08-25T07:33:52.831Z,1012.25
2022-08-25T07:34:52.939Z,1012.25
2022-08-25T07:35:52.795Z,1012.26
2022-08-25T07:36:52.779Z,1012.28
2022-08-25T07:37:52.763Z,1012.27
2022-08-25T07:38:52.747Z,1012.26
2022-08-25T07:39:52.759Z,1012.24
2022-08-25T07:41:52.787Z,1012.25
2022-08-25T07:42:52.679Z,1012.28
2022-08-25T07:43:52.661Z,1012.29
2022-08-25T07:44:52.645Z,1012.33
2022-08-25T07:45:52.640Z,1012.34
2022-08-25T07:46:53.654Z,1012.36
2022-08-25T07:47:52.597Z,1012.38
2022-08-25T07:48:53.229Z,1012.35
2022-08-25T07:49:52.567Z,1012.38
2022-08-25T07:50:52.550Z,1012.40
2022-08-25T07:52:05.437Z,1012.37
2022-08-25T07:52:55.139Z,1012.36
2022-08-25T07:53:52.496Z,1012.37
2022-08-25T07:54:52.480Z,1012.37
2022-08-25T07:55:53.685Z,1012.39
2022-08-25T07:56:52.451Z,1012.34
2022-08-25T07:57:54.097Z,1012.33
2022-08-25T07:58:52.417Z,1012.28
2022-08-25T07:59:52.400Z,1012.29
2022-08-25T08:00:52.384Z,1012.29
2022-08-25T08:01:52.461Z,1012.26
2022-08-25T08:02:52.383Z,1012.23
2022-08-25T08:03:52.416Z,1012.25
2022-08-25T08:04:52.323Z,1012.24
2022-08-25T08:05:52.303Z,1012.24
2022-08-25T08:06:52.287Z,1012.22
2022-08-25T08:07:52.268Z,1012.20
2022-08-25T08:08:54.693Z,1012.21
2022-08-25T08:10:05.357Z,1012.19
2022-08-25T08:11:07.605Z,1012.18
2022-08-25T08:11:53.968Z,1012.18
2022-08-25T08:12:52.190Z,1012.20
2022-08-25T08:13:52.174Z,1012.20
2022-08-25T08:14:52.164Z,1012.19
2022-08-25T08:15:52.194Z,1012.23
2022-08-25T08:16:52.129Z,1012.22
2022-08-25T08:17:52.119Z,1012.17
2022-08-25T08:18:52.095Z,1012.19
2022-08-25T08:19:52.077Z,1012.17
2022-08-25T08:20:52.069Z,1012.16
2022-08-25T08:21:52.496Z,1012.20
2022-08-25T08:22:52.035Z,1012.12
2022-08-25T08:23:56.688Z,1012.09
2022-08-25T08:24:54.476Z,1012.07
2022-08-25T08:25:51.986Z,1012.07
2022-08-25T08:26:58.585Z,1012.04
2022-08-25T08:27:51.953Z,1012.07
2022-08-25T08:28:52.319Z,1012.07
2022-08-25T08:29:51.923Z,1012.10
2022-08-25T08:30:53.600Z,1012.05
2022-08-25T08:31:51.938Z,1012.02
2022-08-25T08:33:11.375Z,1012.04
2022-08-25T08:33:51.862Z,1012.06
2022-08-25T08:34:51.849Z,1012.05
2022-08-25T08:35:51.832Z,1012.00
2022-08-25T08:36:51.821Z,1012.07
2022-08-25T08:37:53.924Z,1012.01
2022-08-25T08:38:51.789Z,1011.98
2022-08-25T08:39:51.820Z,1011.98
2022-08-25T08:40:51.757Z,1011.98
2022-08-25T08:42:10.833Z,1011.97
2022-08-25T08:42:51.728Z,1011.97
2022-08-25T08:43:51.711Z,1011.97
2022-08-25T08:44:51.698Z,1011.96
2022-08-25T08:45:51.680Z,1011.95
2022-08-25T08:46:51.714Z,1011.96
2022-08-25T08:47:51.651Z,1011.92
2022-08-25T08:48:51.636Z,1011.90
2022-08-25T08:49:51.624Z,1011.93
2022-08-25T08:50:51.606Z,1011.89
2022-08-25T08:51:51.594Z,1011.87
2022-08-25T08:52:51.579Z,1011.84
2022-08-25T08:53:51.561Z,1011.86
2022-08-25T08:54:51.547Z,1011.85
2022-08-25T08:55:52.914Z,1011.85
2022-08-25T08:56:51.519Z,1011.91
2022-08-25T08:57:51.505Z,1011.89
2022-08-25T08:58:51.489Z,1011.85
2022-08-25T08:59:51.470Z,1011.85
2022-08-25T09:00:52.325Z,1011.87
2022-08-25T09:01:52.509Z,1011.86
2022-08-25T09:02:52.295Z,1011.84
2022-08-25T09:03:55.168Z,1011.81
2022-08-25T09:04:51.401Z,1011.79
2022-08-25T09:05:51.387Z,1011.76
2022-08-25T09:06:51.378Z,1011.77
2022-08-25T09:08:05.061Z,1011.79
2022-08-25T09:08:51.342Z,1011.77
2022-08-25T09:09:52.186Z,1011.74
2022-08-25T09:10:51.321Z,1011.74
2022-08-25T09:11:51.300Z,1011.71
2022-08-25T09:12:51.339Z,1011.74
2022-08-25T09:13:51.270Z,1011.78
2022-08-25T09:14:53.877Z,1011.76
2022-08-25T09:15:51.268Z,1011.75
2022-08-25T09:16:51.295Z,1011.80
2022-08-25T09:17:54.776Z,1011.75
2022-08-25T09:18:52.598Z,1011.75
2022-08-25T09:19:51.183Z,1011.78
2022-08-25T09:20:51.167Z,1011.74
2022-08-25T09:21:51.154Z,1011.74
2022-08-25T09:22:51.139Z,1011.78
2022-08-25T09:23:51.123Z,1011.75
2022-08-25T09:24:51.157Z,1011.71
2022-08-25T09:25:52.684Z,1011.69
2022-08-25T09:26:51.085Z,1011.66
2022-08-25T09:27:51.066Z,1011.69
2022-08-25T09:28:51.300Z,1011.66
2022-08-25T09:29:51.037Z,1011.65
2022-08-25T09:30:51.101Z,1011.62
2022-08-25T09:31:51.120Z,1011.60
2022-08-25T09:32:52.478Z,1011.63
2022-08-25T09:33:50.987Z,1011.60
2022-08-25T09:34:50.972Z,1011.59
2022-08-25T09:35:50.950Z,1011.55
2022-08-25T09:36:50.938Z,1011.57
2022-08-25T09:37:50.924Z,1011.57
2022-08-25T09:38:50.911Z,1011.53
2022-08-25T09:39:50.977Z,1011.52
2022-08-25T09:40:50.882Z,1011.53
2022-08-25T09:41:51.240Z,1011.50
2022-08-25T09:42:50.854Z,1011.51
2022-08-25T09:43:50.848Z,1011.51
2022-08-25T09:44:50.824Z,1011.48
2022-08-25T09:45:50.814Z,1011.46
2022-08-25T09:46:50.798Z,1011.51
2022-08-25T09:47:50.779Z,1011.46
2022-08-25T09:48:55.972Z,1011.46
2022-08-25T09:49:50.765Z,1011.48
2022-08-25T09:50:50.741Z,1011.46
2022-08-25T09:51:52.689Z,1011.44
2022-08-25T09:52:53.418Z,1011.43
2022-08-25T09:53:50.702Z,1011.43
2022-08-25T09:54:50.685Z,1011.41
2022-08-25T09:55:50.671Z,1011.38
2022-08-25T09:56:50.652Z,1011.38
2022-08-25T09:57:52.958Z,1011.30
2022-08-25T09:58:50.627Z,1011.32
2022-08-25T09:59:57.330Z,1011.30
2022-08-25T10:00:50.599Z,1011.25
2022-08-25T10:01:50.658Z,1011.27
2022-08-25T10:02:50.570Z,1011.26
2022-08-25T10:03:50.568Z,1011.14
2022-08-25T10:04:50.558Z,1011.15
2022-08-25T10:05:56.377Z,1011.16
2022-08-25T10:06:50.515Z,1011.13
2022-08-25T10:07:52.007Z,1011.13
2022-08-25T10:08:50.491Z,1011.15
2022-08-25T10:09:50.476Z,1011.11
2022-08-25T10:10:50.461Z,1011.08
2022-08-25T10:11:50.447Z,1011.10
2022-08-25T10:12:51.344Z,1011.03
2022-08-25T10:13:51.382Z,1011.05
2022-08-25T10:14:50.408Z,1011.01
2022-08-25T10:15:50.428Z,1011.06
2022-08-25T10:16:50.477Z,1011.03
2022-08-25T10:17:50.363Z,1011.00
2022-08-25T10:18:50.349Z,1011.03
2022-08-25T10:19:50.336Z,1010.98
2022-08-25T10:20:50.320Z,1010.97
2022-08-25T10:21:50.309Z,1010.93
2022-08-25T10:22:50.554Z,1010.94
2022-08-25T10:23:50.281Z,1010.91
2022-08-25T10:24:50.266Z,1010.90
2022-08-25T10:25:59.191Z,1010.89
2022-08-25T10:26:50.240Z,1010.91
2022-08-25T10:27:50.234Z,1010.88
2022-08-25T10:28:50.214Z,1010.86
2022-08-25T10:29:50.197Z,1010.83
2022-08-25T10:30:50.292Z,1010.82
2022-08-25T10:31:50.171Z,1010.81
2022-08-25T10:32:50.157Z,1010.78
2022-08-25T10:33:50.420Z,1010.77
2022-08-25T10:34:51.788Z,1010.74
2022-08-25T10:35:50.118Z,1010.75
2022-08-25T10:36:50.102Z,1010.70
2022-08-25T10:37:50.089Z,1010.67
2022-08-25T10:38:50.077Z,1010.66
2022-08-25T10:39:55.400Z,1010.64
2022-08-25T10:40:50.052Z,1010.62
2022-08-25T10:41:51.252Z,1010.57
2022-08-25T10:42:50.020Z,1010.59
2022-08-25T10:43:50.010Z,1010.58
2022-08-25T10:44:49.999Z,1010.62
2022-08-25T10:45:50.926Z,1010.59
2022-08-25T10:46:49.976Z,1010.61
2022-08-25T10:47:49.955Z,1010.59
2022-08-25T10:48:49.984Z,1010.54
2022-08-25T10:49:50.220Z,1010.52
2022-08-25T10:50:49.914Z,1010.47
2022-08-25T10:51:50.964Z,1010.47
2022-08-25T10:52:49.890Z,1010.42
2022-08-25T10:53:49.897Z,1010.41
2022-08-25T10:54:49.861Z,1010.41
2022-08-25T10:55:50.361Z,1010.41
2022-08-25T10:56:49.832Z,1010.41
2022-08-25T10:57:49.821Z,1010.43
2022-08-25T10:58:49.805Z,1010.41
2022-08-25T10:59:49.793Z,1010.40
2022-08-25T11:00:49.787Z,1010.39
2022-08-25T11:01:53.357Z,1010.35
2022-08-25T11:02:49.752Z,1010.31
2022-08-25T11:03:49.738Z,1010.29
2022-08-25T11:04:49.810Z,1010.30
2022-08-25T11:05:49.713Z,1010.36
2022-08-25T11:06:52.718Z,1010.33
2022-08-25T11:07:49.685Z,1010.35
2022-08-25T11:08:49.679Z,1010.36
2022-08-25T11:09:49.660Z,1010.32
2022-08-25T11:10:50.413Z,1010.33
2022-08-25T11:11:49.631Z,1010.30
2022-08-25T11:12:49.618Z,1010.27
2022-08-25T11:13:49.607Z,1010.30
2022-08-25T11:14:49.591Z,1010.30
2022-08-25T11:16:06.542Z,1010.32
2022-08-25T11:16:49.632Z,1010.24
2022-08-25T11:17:50.306Z,1010.26
2022-08-25T11:18:49.540Z,1010.23
2022-08-25T11:19:49.528Z,1010.22
2022-08-25T11:20:49.511Z,1010.23
2022-08-25T11:21:49.502Z,1010.26
2022-08-25T11:22:49.485Z,1010.27
2022-08-25T11:23:49.477Z,1010.24
2022-08-25T11:24:49.457Z,1010.29
2022-08-25T11:25:49.451Z,1010.27
2022-08-25T11:26:49.437Z,1010.28
2022-08-25T11:27:49.421Z,1010.26
2022-08-25T11:28:49.409Z,1010.26
2022-08-25T11:29:49.393Z,1010.24
2022-08-25T11:30:49.416Z,1010.22
2022-08-25T11:31:53.078Z,1010.23
2022-08-25T11:32:49.352Z,1010.21
2022-08-25T11:33:49.341Z,1010.24
2022-08-25T11:34:49.328Z,1010.23
2022-08-25T11:35:49.346Z,1010.22
2022-08-25T11:36:49.301Z,1010.17
2022-08-25T11:37:49.289Z,1010.18
2022-08-25T11:38:49.292Z,1010.20
2022-08-25T11:39:49.329Z,1010.18
2022-08-25T11:40:50.087Z,1010.23
2022-08-25T11:41:49.239Z,1010.21
2022-08-25T11:42:49.220Z,1010.19
2022-08-25T11:43:49.209Z,1010.21
2022-08-25T11:44:53.666Z,1010.17
2022-08-25T11:45:54.274Z,1010.15
2022-08-25T11:46:49.168Z,1010.12
2022-08-25T11:47:49.156Z,1010.17
2022-08-25T11:48:49.142Z,1010.16
2022-08-25T11:49:49.131Z,1010.15
2022-08-25T11:50:49.116Z,1010.15
2022-08-25T11:51:49.103Z,1010.12
2022-08-25T11:52:49.088Z,1010.17
2022-08-25T11:53:49.081Z,1010.21
2022-08-25T11:54:49.066Z,1010.18
2022-08-25T11:55:49.053Z,1010.22
2022-08-25T11:56:49.036Z,1010.22
2022-08-25T11:57:53.145Z,1010.20
2022-08-25T11:58:49.937Z,1010.21
2022-08-25T11:59:49.008Z,1010.22
2022-08-25T12:00:48.985Z,1010.21
2022-08-25T12:01:48.974Z,1010.20
2022-08-25T12:02:48.959Z,1010.24
2022-08-25T12:03:50.744Z,1010.22
2022-08-25T12:04:49.054Z,1010.21
2022-08-25T12:05:48.965Z,1010.17